Time;durP1;ratioP1;P1;durP2;ratioP2;P2;SDS_P1;SDS_P2;PMS_P1;PMS_P2;Temp;Humidity;BMP_temperature;BMP_pressure;BME280_temperature;BME280_humidity;BME280_pressure;Samples;Min_cycle;Max_cycle;Signal;HPM_P1;HPM_P2
2022/12/14 00:01:28;;;;;;;45.57;21.00;;;-4.20;99.90;;;;;;4934438;29;21151;-58
2022/12/14 00:03:55;;;;;;;38.90;18.23;;;-4.20;99.90;;;;;;4935324;29;20537;-58
2022/12/14 00:06:28;;;;;;;38.83;19.27;;;-4.20;99.90;;;;;;4927876;29;20436;-58
2022/12/14 00:08:59;;;;;;;38.70;18.43;;;-4.30;99.90;;;;;;4932657;29;20437;-58
2022/12/14 00:11:25;;;;;;;38.07;18.57;;;-4.30;99.90;;;;;;4927292;29;20465;-57
2022/12/14 00:13:56;;;;;;;45.17;19.47;;;-4.30;99.90;;;;;;4930437;29;20502;-58
2022/12/14 00:16:23;;;;;;;44.33;19.67;;;-4.30;99.90;;;;;;4933344;29;21016;-58
2022/12/14 00:18:51;;;;;;;38.30;18.43;;;-4.40;99.90;;;;;;4926604;29;20429;-58
2022/12/14 00:21:17;;;;;;;42.03;20.13;;;-4.40;99.90;;;;;;4933899;28;21231;-60
2022/12/14 00:23:44;;;;;;;35.70;17.73;;;-4.40;99.90;;;;;;4930120;29;20475;-58
2022/12/14 00:26:16;;;;;;;43.47;19.50;;;-4.40;99.90;;;;;;4934481;29;20463;-58
2022/12/14 00:28:43;;;;;;;40.93;17.67;;;-4.50;99.90;;;;;;4936292;29;20432;-59
2022/12/14 00:31:09;;;;;;;38.03;17.60;;;-4.50;99.90;;;;;;4932628;29;20461;-58
2022/12/14 00:33:36;;;;;;;43.87;18.97;;;-4.50;99.90;;;;;;4932734;29;20444;-58
2022/12/14 00:36:03;;;;;;;42.87;19.50;;;-4.40;99.90;;;;;;4928577;29;20520;-58
2022/12/14 00:38:29;;;;;;;44.20;20.30;;;-4.40;99.90;;;;;;4926503;29;21026;-58
2022/12/14 00:40:55;;;;;;;44.33;19.73;;;-4.40;99.90;;;;;;4924187;29;20538;-58
2022/12/14 00:43:21;;;;;;;46.60;21.10;;;-4.40;99.90;;;;;;4935308;29;20229;-58
2022/12/14 00:45:47;;;;;;;50.00;20.77;;;-4.30;99.90;;;;;;4931266;29;20577;-59
2022/12/14 00:48:13;;;;;;;40.60;21.17;;;-4.30;99.90;;;;;;4932741;29;20883;-58
2022/12/14 00:50:39;;;;;;;36.83;19.37;;;-4.30;99.90;;;;;;4933407;29;20877;-58
2022/12/14 00:53:05;;;;;;;43.10;19.90;;;-4.20;99.90;;;;;;4935172;29;20437;-58
2022/12/14 00:55:41;;;;;;;43.30;21.40;;;-4.20;99.90;;;;;;4926690;29;20523;-59
2022/12/14 00:58:09;;;;;;;41.03;20.00;;;-4.20;99.90;;;;;;4940514;28;20199;-58
2022/12/14 01:00:35;;;;;;;40.17;19.70;;;-4.20;99.90;;;;;;4933900;29;20492;-59
2022/12/14 01:03:01;;;;;;;39.53;18.10;;;-4.10;99.90;;;;;;4928815;29;20436;-58
2022/12/14 01:05:27;;;;;;;32.77;18.73;;;-4.20;99.90;;;;;;4931976;29;20223;-59
2022/12/14 01:07:52;;;;;;;43.77;20.30;;;-4.10;99.90;;;;;;4927892;29;20481;-58
2022/12/14 01:10:18;;;;;;;40.60;20.70;;;-4.20;99.90;;;;;;4934760;29;20208;-58
2022/12/14 01:12:44;;;;;;;38.70;19.60;;;-4.20;99.90;;;;;;4925354;29;20705;-59
2022/12/14 01:15:09;;;;;;;44.40;19.13;;;-4.20;99.90;;;;;;4932123;29;20222;-58
2022/12/14 01:17:35;;;;;;;44.23;19.27;;;-4.20;99.90;;;;;;4931488;29;20181;-59
2022/12/14 01:20:01;;;;;;;38.57;18.97;;;-4.10;99.90;;;;;;4931831;29;20200;-58
2022/12/14 01:22:27;;;;;;;35.87;18.13;;;-4.20;99.90;;;;;;4929216;29;20210;-58
2022/12/14 01:24:52;;;;;;;40.70;19.57;;;-4.20;99.90;;;;;;4933714;29;20424;-58
2022/12/14 01:27:18;;;;;;;40.63;19.43;;;-4.20;99.90;;;;;;4929844;29;20234;-57
2022/12/14 01:29:43;;;;;;;40.13;19.80;;;-4.10;99.90;;;;;;4930411;29;20700;-58
2022/12/14 01:32:09;;;;;;;49.97;18.20;;;-4.10;99.90;;;;;;4929344;29;20198;-57
2022/12/14 01:34:35;;;;;;;40.07;19.77;;;-4.10;99.90;;;;;;4931661;29;20181;-58
2022/12/14 01:37:01;;;;;;;41.47;20.10;;;-4.10;99.90;;;;;;4932671;29;20461;-57
2022/12/14 01:39:26;;;;;;;35.90;18.57;;;-4.10;99.90;;;;;;4947212;28;20183;-58
2022/12/14 01:41:52;;;;;;;44.30;19.50;;;-4.10;99.90;;;;;;4931593;29;20201;-58
2022/12/14 01:44:17;;;;;;;41.60;20.10;;;-4.10;99.90;;;;;;4925370;29;20177;-57
2022/12/14 01:46:57;;;;;;;42.90;20.40;;;-4.10;99.90;;;;;;4926980;29;20183;-58
2022/12/14 01:49:47;;;;;;;39.07;18.53;;;-4.10;99.90;;;;;;4930493;29;20194;-58
2022/12/14 01:52:24;;;;;;;40.43;19.20;;;-4.10;99.90;;;;;;4931017;29;20445;-58
2022/12/14 01:54:58;;;;;;;38.83;19.30;;;-4.10;99.90;;;;;;4935749;29;20433;-58
2022/12/14 01:57:31;;;;;;;36.73;19.40;;;-4.10;99.90;;;;;;4931826;29;20439;-56
2022/12/14 01:59:58;;;;;;;43.63;20.30;;;-4.10;99.90;;;;;;4932364;29;20981;-58
2022/12/14 02:02:24;;;;;;;41.30;19.40;;;-4.10;99.90;;;;;;4936299;29;20854;-57
2022/12/14 02:04:56;;;;;;;44.27;20.33;;;-4.10;99.90;;;;;;4931861;29;20894;-57
2022/12/14 02:07:22;;;;;;;38.23;18.83;;;-4.10;99.90;;;;;;4930264;29;20582;-57
2022/12/14 02:09:50;;;;;;;45.47;21.50;;;-4.10;99.90;;;;;;4931783;29;20966;-57
2022/12/14 02:12:21;;;;;;;40.37;20.73;;;-4.10;99.90;;;;;;4938966;29;20428;-57
2022/12/14 02:14:47;;;;;;;43.10;21.70;;;-4.10;99.90;;;;;;4935057;29;20909;-57
2022/12/14 02:17:13;;;;;;;43.70;20.97;;;-4.10;99.90;;;;;;4931556;29;20473;-58
2022/12/14 02:19:42;;;;;;;41.87;19.57;;;-4.00;99.90;;;;;;4941862;28;20441;-57
2022/12/14 02:22:23;;;;;;;46.80;20.83;;;-4.10;99.90;;;;;;4931814;29;20451;-57
2022/12/14 02:25:07;;;;;;;37.53;18.67;;;-4.00;99.90;;;;;;4936064;29;20416;-56
2022/12/14 02:27:54;;;;;;;49.70;21.80;;;-4.10;99.90;;;;;;4937585;29;20433;-56
2022/12/14 02:30:23;;;;;;;39.27;19.73;;;-4.10;99.90;;;;;;4937123;29;20434;-56
2022/12/14 02:33:11;;;;;;;49.43;21.77;;;-4.10;99.90;;;;;;4935535;29;21018;-56
2022/12/14 02:35:54;;;;;;;42.03;20.10;;;-4.10;99.90;;;;;;4934553;29;20854;-57
2022/12/14 02:38:48;;;;;;;40.67;19.50;;;-4.00;99.90;;;;;;4930063;29;20444;-56
2022/12/14 02:41:37;;;;;;;49.47;20.17;;;-4.00;99.90;;;;;;4924726;29;20520;-57
2022/12/14 02:44:07;;;;;;;45.23;19.67;;;-4.00;99.90;;;;;;4932867;29;20436;-56
2022/12/14 02:46:47;;;;;;;54.53;21.03;;;-4.00;99.90;;;;;;4938781;29;20530;-56
2022/12/14 02:49:24;;;;;;;47.87;19.87;;;-4.00;99.90;;;;;;4932972;29;20446;-57
2022/12/14 02:52:12;;;;;;;49.40;20.37;;;-4.00;99.90;;;;;;4934165;29;20456;-56
2022/12/14 02:54:43;;;;;;;40.80;19.67;;;-3.90;99.90;;;;;;4934657;29;20432;-57
2022/12/14 02:57:34;;;;;;;38.90;20.10;;;-3.90;99.90;;;;;;4926799;29;20495;-57
2022/12/14 03:00:03;;;;;;;43.40;18.80;;;-4.00;99.90;;;;;;4943942;28;20448;-57
2022/12/14 03:02:29;;;;;;;41.43;19.00;;;-4.00;99.90;;;;;;4933051;29;20438;-57
2022/12/14 03:04:55;;;;;;;38.97;20.03;;;-4.00;99.90;;;;;;4933554;29;21182;-56
2022/12/14 03:07:25;;;;;;;43.17;20.10;;;-4.00;99.90;;;;;;4931370;29;20442;-57
2022/12/14 03:09:51;;;;;;;44.50;20.63;;;-4.00;99.90;;;;;;4935265;29;20204;-56
2022/12/14 03:12:19;;;;;;;46.43;20.63;;;-4.00;99.90;;;;;;4933432;29;20481;-55
2022/12/14 03:14:50;;;;;;;41.77;20.67;;;-4.00;99.90;;;;;;4935625;29;20186;-55
2022/12/14 03:17:19;;;;;;;42.37;20.90;;;-3.90;99.90;;;;;;4929389;29;20467;-56
2022/12/14 03:20:17;;;;;;;38.57;19.47;;;-3.90;99.90;;;;;;4934789;29;20920;-56
2022/12/14 03:23:10;;;;;;;43.53;19.97;;;-3.90;99.90;;;;;;4927684;29;20516;-57
2022/12/14 03:25:45;;;;;;;47.30;19.97;;;-3.90;99.90;;;;;;4932503;29;20461;-56
2022/12/14 03:28:23;;;;;;;42.27;19.83;;;-3.90;99.90;;;;;;4933795;29;20588;-57
2022/12/14 03:31:03;;;;;;;41.93;18.83;;;-3.90;99.90;;;;;;4926024;29;20433;-56
2022/12/14 03:33:30;;;;;;;47.60;22.00;;;-3.90;99.90;;;;;;4934915;29;20451;-57
2022/12/14 03:36:11;;;;;;;38.23;19.83;;;-3.90;99.90;;;;;;4935257;29;20516;-57
2022/12/14 03:38:42;;;;;;;44.30;21.97;;;-3.90;99.90;;;;;;4926234;29;20440;-56
2022/12/14 03:41:14;;;;;;;46.27;21.60;;;-3.90;99.90;;;;;;4927548;29;20451;-57
2022/12/14 03:44:07;;;;;;;51.83;21.87;;;-3.90;99.90;;;;;;4932584;28;20950;-57
2022/12/14 03:46:39;;;;;;;41.23;21.20;;;-3.80;99.90;;;;;;4933566;29;20467;-56
2022/12/14 03:49:20;;;;;;;49.40;22.73;;;-3.80;99.90;;;;;;4932442;29;20540;-56
2022/12/14 03:52:18;;;;;;;42.43;20.30;;;-3.80;99.90;;;;;;4933606;29;20465;-57
2022/12/14 03:54:50;;;;;;;50.07;21.30;;;-3.80;99.90;;;;;;4931420;29;20468;-57
2022/12/14 03:57:40;;;;;;;46.10;21.20;;;-3.80;99.90;;;;;;4933668;29;20511;-57
2022/12/14 04:00:11;;;;;;;40.43;21.43;;;-3.80;99.90;;;;;;4933273;29;20428;-57
2022/12/14 04:02:52;;;;;;;46.17;22.90;;;-3.80;99.90;;;;;;4933013;29;20440;-57
2022/12/14 04:05:29;;;;;;;52.20;22.60;;;-3.80;99.90;;;;;;4927939;29;20575;-57
2022/12/14 04:08:06;;;;;;;45.03;22.10;;;-3.80;99.90;;;;;;4932125;29;20444;-57
2022/12/14 04:19:31;;;;;;;46.17;21.50;;;-3.80;99.90;;;;;;4932811;29;20854;-57
2022/12/14 04:22:03;;;;;;;53.80;24.30;;;-3.70;99.90;;;;;;4918964;29;20558;-57
2022/12/14 04:27:43;;;;;;;42.93;20.80;;;-3.70;99.90;;;;;;4926683;29;21147;-57
2022/12/14 04:30:10;;;;;;;44.17;21.77;;;-3.70;99.90;;;;;;4933871;29;20505;-57
2022/12/14 04:32:38;;;;;;;50.33;22.17;;;-3.70;99.90;;;;;;4932539;29;20441;-56
2022/12/14 04:35:27;;;;;;;41.40;21.17;;;-3.70;99.90;;;;;;4933630;29;20932;-57
2022/12/14 04:38:01;;;;;;;49.00;21.97;;;-3.70;99.90;;;;;;4931722;29;20449;-57
2022/12/14 04:40:42;;;;;;;58.97;22.93;;;-3.70;99.90;;;;;;4933320;29;20527;-58
2022/12/14 04:43:13;;;;;;;51.37;22.50;;;-3.70;99.90;;;;;;4933542;29;20527;-58
2022/12/14 04:46:01;;;;;;;52.70;22.07;;;-3.60;99.90;;;;;;4931849;29;20435;-57
2022/12/14 04:48:46;;;;;;;54.83;22.10;;;-3.70;99.90;;;;;;4926591;29;20435;-58
2022/12/14 04:51:19;;;;;;;46.10;22.47;;;-3.70;99.90;;;;;;4926518;29;20467;-57
2022/12/14 04:53:50;;;;;;;50.73;21.40;;;-3.70;99.90;;;;;;4929494;29;20469;-57
2022/12/14 04:56:22;;;;;;;48.43;24.13;;;-3.70;99.90;;;;;;4936854;28;20458;-56
2022/12/14 04:58:48;;;;;;;54.77;22.67;;;-3.70;99.90;;;;;;4928840;29;20439;-57
2022/12/14 05:01:38;;;;;;;47.73;21.33;;;-3.70;99.90;;;;;;4925948;29;20464;-56
2022/12/14 05:04:26;;;;;;;49.80;21.60;;;-3.70;99.90;;;;;;4926403;29;20444;-54
2022/12/14 05:07:07;;;;;;;54.50;23.30;;;-3.70;99.90;;;;;;4934014;28;20453;-57
2022/12/14 05:10:03;;;;;;;46.53;22.30;;;-3.70;99.90;;;;;;4927092;29;20470;-57
2022/12/14 05:12:39;;;;;;;48.27;21.70;;;-3.60;99.90;;;;;;4918289;29;20523;-60
2022/12/14 05:15:11;;;;;;;51.17;21.43;;;-3.60;99.90;;;;;;4929932;29;20434;-59
2022/12/14 05:17:38;;;;;;;43.17;19.87;;;-3.60;99.90;;;;;;4925894;29;20515;-58
2022/12/14 05:20:05;;;;;;;50.40;22.77;;;-3.60;99.90;;;;;;4925378;29;20855;-59
2022/12/14 05:22:31;;;;;;;45.30;21.53;;;-3.60;99.90;;;;;;4927894;29;20498;-59
2022/12/14 05:24:57;;;;;;;49.53;22.37;;;-3.60;99.90;;;;;;4920762;29;22403;-59
2022/12/14 05:27:22;;;;;;;48.53;23.70;;;-3.60;99.90;;;;;;4924626;29;22075;-59
2022/12/14 05:29:48;;;;;;;47.63;20.57;;;-3.60;99.90;;;;;;4923644;29;20179;-59
2022/12/14 05:32:13;;;;;;;51.10;22.30;;;-3.60;99.90;;;;;;4924636;29;20697;-59
2022/12/14 05:34:39;;;;;;;49.30;21.73;;;-3.50;99.90;;;;;;4924871;28;20192;-59
2022/12/14 05:37:05;;;;;;;45.57;21.53;;;-3.50;99.90;;;;;;4924580;29;20214;-59
2022/12/14 05:39:30;;;;;;;49.27;22.70;;;-3.50;99.90;;;;;;4930994;29;20193;-60
2022/12/14 05:41:56;;;;;;;51.37;21.83;;;-3.50;99.90;;;;;;4931520;28;20697;-59
2022/12/14 05:44:22;;;;;;;45.30;20.37;;;-3.50;99.90;;;;;;4925028;29;20184;-57
2022/12/14 05:46:47;;;;;;;43.90;22.20;;;-3.50;99.90;;;;;;4935510;28;20717;-57
2022/12/14 05:49:13;;;;;;;47.13;22.03;;;-3.50;99.90;;;;;;4934802;29;20226;-59
2022/12/14 05:51:40;;;;;;;47.37;22.70;;;-3.50;99.90;;;;;;4934794;29;20793;-58
2022/12/14 05:54:05;;;;;;;46.13;21.30;;;-3.50;99.90;;;;;;4932025;29;20188;-58
2022/12/14 05:56:31;;;;;;;48.07;22.20;;;-3.40;99.90;;;;;;4936495;29;20461;-59
2022/12/14 05:58:57;;;;;;;50.37;23.13;;;-3.40;99.90;;;;;;4935926;29;20185;-59
2022/12/14 06:01:23;;;;;;;47.53;22.40;;;-3.40;99.90;;;;;;4935810;29;20436;-59
2022/12/14 06:03:51;;;;;;;54.40;22.00;;;-3.40;99.90;;;;;;4951863;28;20203;-59
2022/12/14 06:06:17;;;;;;;56.23;23.77;;;-3.40;99.90;;;;;;4934686;29;20271;-57
2022/12/14 06:08:44;;;;;;;51.20;23.00;;;-3.40;99.90;;;;;;4934990;29;21023;-58
2022/12/14 06:11:16;;;;;;;49.20;23.30;;;-3.40;99.90;;;;;;4934007;29;20309;-59
2022/12/14 06:13:42;;;;;;;49.90;22.67;;;-3.40;99.90;;;;;;4936297;28;20480;-59
2022/12/14 06:16:20;;;;;;;41.87;21.10;;;-3.30;99.90;;;;;;4925758;29;20508;-59
2022/12/14 06:18:47;;;;;;;53.10;23.40;;;-3.30;99.90;;;;;;4927193;29;20440;-59
2022/12/14 06:21:14;;;;;;;49.87;22.43;;;-3.30;99.90;;;;;;4939375;28;20450;-59
2022/12/14 06:23:40;;;;;;;54.80;22.60;;;-3.20;99.90;;;;;;4934374;28;20445;-58
2022/12/14 06:26:07;;;;;;;48.07;22.30;;;-3.20;99.90;;;;;;4932553;29;20443;-59
2022/12/14 06:28:34;;;;;;;48.33;22.10;;;-3.20;99.90;;;;;;4934699;29;20486;-58
2022/12/14 06:30:59;;;;;;;46.63;21.57;;;-3.20;99.90;;;;;;4936145;28;20511;-59
2022/12/14 06:33:26;;;;;;;47.50;21.90;;;-3.20;99.90;;;;;;4930588;29;20800;-58
2022/12/14 06:35:51;;;;;;;56.63;22.57;;;-3.10;99.90;;;;;;4934817;29;20467;-59
2022/12/14 06:38:17;;;;;;;46.07;22.70;;;-3.10;99.90;;;;;;4933395;29;20452;-58
2022/12/14 06:40:43;;;;;;;51.50;21.87;;;-3.10;99.90;;;;;;4934087;29;20290;-59
2022/12/14 06:43:08;;;;;;;43.53;21.97;;;-3.10;99.90;;;;;;4935493;29;20320;-59
2022/12/14 06:45:35;;;;;;;43.47;21.70;;;-3.10;99.90;;;;;;4935601;29;20665;-59
2022/12/14 06:48:00;;;;;;;50.43;23.03;;;-3.20;99.90;;;;;;4932244;29;20505;-59
2022/12/14 06:50:26;;;;;;;47.20;23.50;;;-3.20;99.90;;;;;;4934875;29;20472;-59
2022/12/14 06:52:54;;;;;;;47.40;24.97;;;-3.20;99.90;;;;;;4933617;29;20223;-59
2022/12/14 06:55:20;;;;;;;48.30;22.77;;;-3.20;99.90;;;;;;4932073;29;20194;-58
2022/12/14 06:57:49;;;;;;;46.83;21.60;;;-3.10;99.90;;;;;;4934915;29;20993;-58
2022/12/14 07:00:15;;;;;;;44.27;22.27;;;-3.10;99.90;;;;;;4931939;29;20457;-59
2022/12/14 07:02:40;;;;;;;54.07;23.30;;;-3.10;99.90;;;;;;4938993;29;20435;-58
2022/12/14 07:05:06;;;;;;;49.23;21.63;;;-3.10;99.90;;;;;;4932730;28;20184;-59
2022/12/14 07:07:33;;;;;;;52.07;22.43;;;-3.10;99.90;;;;;;4934363;29;20181;-58
2022/12/14 07:09:58;;;;;;;46.87;23.87;;;-3.10;99.90;;;;;;4933215;29;20595;-59
2022/12/14 07:12:24;;;;;;;45.80;22.77;;;-3.10;99.90;;;;;;4928919;29;20450;-59
2022/12/14 07:14:50;;;;;;;57.57;24.30;;;-3.10;99.90;;;;;;4934579;28;20192;-59
2022/12/14 07:17:15;;;;;;;53.90;22.90;;;-3.00;99.90;;;;;;4933301;29;20227;-59
2022/12/14 07:19:45;;;;;;;54.13;23.30;;;-3.00;99.90;;;;;;4932004;29;20208;-59
2022/12/14 07:22:11;;;;;;;47.83;22.50;;;-3.00;99.90;;;;;;4935718;28;20875;-59
2022/12/14 07:24:36;;;;;;;38.87;20.57;;;-3.00;99.90;;;;;;4932887;29;20442;-57
2022/12/14 07:27:02;;;;;;;45.03;22.07;;;-3.00;99.90;;;;;;4934292;29;20225;-58
2022/12/14 07:29:28;;;;;;;46.77;21.70;;;-3.00;99.90;;;;;;4926454;29;20279;-59
2022/12/14 07:31:53;;;;;;;42.17;21.73;;;-3.00;99.90;;;;;;4933730;28;20553;-60
2022/12/14 07:34:19;;;;;;;48.20;22.60;;;-2.90;99.90;;;;;;4933541;29;20195;-59
2022/12/14 07:36:48;;;;;;;48.50;22.13;;;-2.90;99.90;;;;;;4925094;29;20218;-59
2022/12/14 07:39:14;;;;;;;48.73;25.20;;;-2.90;99.90;;;;;;4933909;29;20181;-60
2022/12/14 07:41:40;;;;;;;54.00;24.40;;;-2.90;99.90;;;;;;4933440;29;20974;-60
2022/12/14 07:44:08;;;;;;;52.30;24.23;;;-2.90;99.90;;;;;;4934159;29;20257;-59
2022/12/14 07:46:34;;;;;;;57.97;26.20;;;-2.90;99.90;;;;;;4936291;29;20455;-59
2022/12/14 07:49:00;;;;;;;61.00;24.87;;;-2.80;99.90;;;;;;4932006;29;20547;-58
2022/12/14 07:51:28;;;;;;;55.20;25.10;;;-2.80;99.90;;;;;;4933192;29;20526;-59
2022/12/14 07:53:55;;;;;;;56.03;24.53;;;-2.80;99.90;;;;;;4929925;29;20480;-59
2022/12/14 07:56:25;;;;;;;50.23;24.60;;;-2.80;99.90;;;;;;4932610;29;20547;-59
2022/12/14 07:58:53;;;;;;;50.37;24.00;;;-2.80;99.90;;;;;;4926995;29;20429;-59
2022/12/14 08:01:21;;;;;;;52.20;23.07;;;-2.80;99.90;;;;;;4933552;29;20983;-59
2022/12/14 08:03:49;;;;;;;53.70;24.27;;;-2.80;99.90;;;;;;4937933;29;20437;-57
2022/12/14 08:06:16;;;;;;;52.73;26.23;;;-2.80;99.90;;;;;;4932895;29;20444;-59
2022/12/14 08:08:42;;;;;;;52.17;24.60;;;-2.70;99.90;;;;;;4928672;29;20437;-58
2022/12/14 08:11:08;;;;;;;74.33;32.77;;;-2.70;99.90;;;;;;4931371;29;21039;-59
2022/12/14 08:13:37;;;;;;;64.97;29.03;;;-2.70;99.90;;;;;;4932903;29;20832;-58
2022/12/14 08:16:08;;;;;;;61.97;26.23;;;-2.70;99.90;;;;;;4933176;29;20515;-57
2022/12/14 08:18:34;;;;;;;57.87;27.00;;;-2.70;99.90;;;;;;4934945;29;20944;-58
2022/12/14 08:21:01;;;;;;;58.03;25.47;;;-2.60;99.90;;;;;;4931462;29;20470;-59
2022/12/14 08:23:27;;;;;;;62.87;28.00;;;-2.60;99.90;;;;;;4933963;29;20437;-59
2022/12/14 08:25:54;;;;;;;57.00;26.77;;;-2.60;99.90;;;;;;4933786;28;20449;-59
2022/12/14 08:28:20;;;;;;;58.17;26.93;;;-2.60;99.90;;;;;;4927682;29;20604;-59
2022/12/14 08:30:45;;;;;;;54.77;24.10;;;-2.60;99.90;;;;;;4931342;29;20440;-59
2022/12/14 08:33:11;;;;;;;49.40;26.63;;;-2.60;99.90;;;;;;4931026;29;20841;-59
2022/12/14 08:35:36;;;;;;;51.20;23.83;;;-2.60;99.90;;;;;;4927291;29;20575;-58
2022/12/14 08:38:02;;;;;;;51.07;24.47;;;-2.60;99.90;;;;;;4933342;29;20184;-58
2022/12/14 08:40:28;;;;;;;56.70;25.90;;;-2.60;99.90;;;;;;4935979;28;20293;-60
2022/12/14 08:42:54;;;;;;;62.90;27.60;;;-2.60;99.90;;;;;;4941022;28;20263;-60
2022/12/14 08:45:20;;;;;;;54.70;24.90;;;-2.50;99.90;;;;;;4924889;28;20447;-59
2022/12/14 08:47:46;;;;;;;56.80;25.23;;;-2.50;99.90;;;;;;4923764;28;20518;-58
2022/12/14 08:50:12;;;;;;;56.80;26.77;;;-2.40;99.90;;;;;;4929583;29;20474;-58
2022/12/14 08:52:38;;;;;;;53.30;25.43;;;-2.40;99.90;;;;;;4931326;29;20639;-59
2022/12/14 08:55:05;;;;;;;61.37;26.07;;;-2.40;99.90;;;;;;4929977;29;20961;-59
2022/12/14 08:57:31;;;;;;;53.97;24.20;;;-2.40;99.90;;;;;;4931551;29;20318;-59
2022/12/14 08:59:57;;;;;;;50.60;23.60;;;-2.40;99.90;;;;;;4933700;29;20446;-58
2022/12/14 09:02:22;;;;;;;56.97;25.10;;;-2.30;99.90;;;;;;4932762;29;20173;-59
2022/12/14 09:04:48;;;;;;;51.80;25.63;;;-2.30;99.90;;;;;;4930668;29;21139;-58
2022/12/14 09:07:14;;;;;;;53.10;25.90;;;-2.20;99.90;;;;;;4930885;29;20180;-59
2022/12/14 09:09:39;;;;;;;52.33;26.50;;;-2.20;99.90;;;;;;4931348;29;20200;-59
2022/12/14 09:12:06;;;;;;;56.30;25.87;;;-2.20;99.90;;;;;;4931036;29;20642;-59
2022/12/14 09:14:35;;;;;;;56.30;26.73;;;-2.10;99.90;;;;;;4932462;29;20200;-58
2022/12/14 09:17:01;;;;;;;59.27;28.13;;;-2.10;99.90;;;;;;4924000;29;20556;-60
2022/12/14 09:19:28;;;;;;;51.17;26.53;;;-2.10;99.90;;;;;;4928781;29;20897;-58
2022/12/14 09:21:54;;;;;;;49.37;25.53;;;-2.10;99.90;;;;;;4930918;29;20575;-59
2022/12/14 09:24:21;;;;;;;58.77;25.20;;;-2.10;99.90;;;;;;4928837;29;20541;-59
2022/12/14 09:26:46;;;;;;;59.70;27.70;;;-2.00;99.90;;;;;;4929735;29;20437;-59
2022/12/14 09:29:17;;;;;;;59.00;25.97;;;-2.00;99.90;;;;;;4928700;29;20453;-59
2022/12/14 09:31:43;;;;;;;66.17;28.60;;;-1.90;99.90;;;;;;4928809;29;20212;-59
2022/12/14 09:34:09;;;;;;;58.43;28.53;;;-1.90;99.90;;;;;;4924942;29;20443;-59
2022/12/14 09:36:35;;;;;;;60.43;27.93;;;-1.90;99.90;;;;;;4931087;29;20472;-59
2022/12/14 09:39:02;;;;;;;61.77;27.50;;;-1.90;99.90;;;;;;4930640;29;20433;-59
2022/12/14 09:41:34;;;;;;;58.30;27.93;;;-1.90;99.90;;;;;;4929757;29;20464;-59
2022/12/14 09:44:13;;;;;;;55.30;27.00;;;-1.90;99.90;;;;;;4929059;29;20484;-59
2022/12/14 09:47:13;;;;;;;58.03;26.57;;;-1.80;99.90;;;;;;4929515;29;20444;-59
2022/12/14 09:49:47;;;;;;;63.13;26.17;;;-1.80;99.90;;;;;;4925742;29;20441;-60
2022/12/14 09:52:35;;;;;;;55.63;26.50;;;-1.80;99.90;;;;;;4928890;29;21210;-59
2022/12/14 09:55:10;;;;;;;57.53;27.00;;;-1.80;99.90;;;;;;4931045;29;20468;-58
2022/12/14 09:57:40;;;;;;;60.40;27.07;;;-1.70;99.90;;;;;;4930755;29;20893;-57
2022/12/14 10:00:19;;;;;;;58.37;27.60;;;-1.70;99.90;;;;;;4931057;28;20448;-59
2022/12/14 10:03:33;;;;;;;60.87;28.77;;;-1.70;99.90;;;;;;4928821;29;20921;-59
2022/12/14 10:06:11;;;;;;;60.97;29.10;;;-1.60;99.90;;;;;;4929842;29;20543;-59
2022/12/14 10:08:49;;;;;;;73.97;27.90;;;-1.60;99.90;;;;;;4928248;29;20452;-58
2022/12/14 10:11:26;;;;;;;54.60;27.37;;;-1.60;99.90;;;;;;4929751;29;20463;-58
2022/12/14 10:13:58;;;;;;;64.47;28.50;;;-1.60;99.90;;;;;;4932488;29;20476;-59
2022/12/14 10:16:29;;;;;;;61.57;27.20;;;-1.60;99.90;;;;;;4927986;29;20468;-59
2022/12/14 10:19:04;;;;;;;60.70;28.30;;;-1.50;99.90;;;;;;4931535;29;22539;-60
2022/12/14 10:21:41;;;;;;;63.40;30.97;;;-1.40;99.90;;;;;;4930573;29;20475;-59
2022/12/14 10:24:15;;;;;;;72.67;28.27;;;-1.40;99.90;;;;;;4930719;29;20444;-59
2022/12/14 10:26:46;;;;;;;67.30;29.60;;;-1.30;99.90;;;;;;4933491;29;20450;-58
2022/12/14 10:29:20;;;;;;;55.43;27.47;;;-1.30;99.90;;;;;;4931527;29;20434;-58
2022/12/14 10:31:53;;;;;;;54.77;26.27;;;-1.20;99.90;;;;;;4931432;29;20980;-59
2022/12/14 10:34:22;;;;;;;57.07;27.00;;;-1.20;99.90;;;;;;4928802;29;20938;-59
2022/12/14 10:37:01;;;;;;;57.20;27.57;;;-1.10;99.90;;;;;;4931535;29;20463;-60
2022/12/14 10:39:46;;;;;;;59.27;27.37;;;-1.10;99.90;;;;;;4935225;29;20424;-59
2022/12/14 10:42:30;;;;;;;54.93;25.67;;;-1.00;99.90;;;;;;4933166;29;20446;-57
2022/12/14 10:45:07;;;;;;;55.13;25.00;;;-1.00;99.90;;;;;;4929952;29;20811;-60
2022/12/14 10:47:40;;;;;;;55.57;26.60;;;-1.00;99.90;;;;;;4931067;29;20508;-58
2022/12/14 10:50:33;;;;;;;59.87;29.60;;;-0.90;99.90;;;;;;4930906;29;20472;-59
2022/12/14 10:53:04;;;;;;;54.90;26.40;;;-0.80;99.90;;;;;;4931077;29;20535;-59
2022/12/14 10:55:34;;;;;;;54.80;26.17;;;-0.80;99.90;;;;;;4927902;29;20440;-58
2022/12/14 10:58:00;;;;;;;53.20;25.50;;;-0.80;99.90;;;;;;4928473;29;20515;-59
2022/12/14 11:00:26;;;;;;;56.53;26.43;;;-0.70;99.90;;;;;;4933208;29;20554;-60
2022/12/14 11:02:54;;;;;;;55.97;27.50;;;-0.70;99.90;;;;;;4945178;28;20805;-57
2022/12/14 11:05:38;;;;;;;54.43;26.00;;;-0.70;99.90;;;;;;4930466;29;20437;-59
2022/12/14 11:08:07;;;;;;;58.33;27.20;;;-0.60;99.90;;;;;;4926731;29;20938;-59
2022/12/14 11:10:35;;;;;;;61.20;26.83;;;-0.60;99.90;;;;;;4931446;29;20464;-58
2022/12/14 11:13:15;;;;;;;55.40;25.57;;;-0.60;99.90;;;;;;4923128;29;20438;-59
2022/12/14 11:15:51;;;;;;;58.03;26.20;;;-0.60;99.90;;;;;;4927503;29;20551;-58
2022/12/14 11:18:16;;;;;;;54.10;25.70;;;-0.60;99.90;;;;;;4930653;29;20444;-59
2022/12/14 11:20:53;;;;;;;52.47;25.53;;;-0.50;99.90;;;;;;4930409;29;20444;-58
2022/12/14 11:23:24;;;;;;;60.60;26.90;;;-0.50;99.90;;;;;;4935911;29;20189;-58
2022/12/14 11:25:54;;;;;;;53.57;26.70;;;-0.50;99.90;;;;;;4944635;28;20440;-59
2022/12/14 11:28:47;;;;;;;55.20;27.40;;;-0.40;99.90;;;;;;4944705;28;20479;-60
2022/12/14 11:31:29;;;;;;;57.67;28.83;;;-0.40;99.90;;;;;;4929818;29;20469;-60
2022/12/14 11:33:57;;;;;;;61.97;28.60;;;-0.30;99.90;;;;;;4928820;29;21100;-59
2022/12/14 11:36:39;;;;;;;57.07;26.87;;;-0.30;99.90;;;;;;4930628;29;20527;-59
2022/12/14 11:39:22;;;;;;;58.70;29.83;;;-0.20;99.90;;;;;;4929699;28;20441;-58
2022/12/14 11:42:00;;;;;;;60.50;27.67;;;-0.20;99.90;;;;;;4929995;29;20860;-59
2022/12/14 11:44:29;;;;;;;62.10;26.73;;;-0.20;99.90;;;;;;4941922;28;20441;-59
2022/12/14 11:46:57;;;;;;;73.00;31.70;;;-0.20;99.90;;;;;;4930576;28;20496;-58
2022/12/14 11:49:38;;;;;;;62.47;29.30;;;-0.10;99.90;;;;;;4930106;28;20512;-58
2022/12/14 11:52:03;;;;;;;60.43;29.70;;;-0.10;99.90;;;;;;4927005;29;20501;-59
2022/12/14 11:54:34;;;;;;;54.57;27.27;;;0.00;99.90;;;;;;4928049;29;20804;-59
2022/12/14 11:57:11;;;;;;;60.10;26.47;;;0.10;99.90;;;;;;4928145;28;20241;-59
2022/12/14 11:59:57;;;;;;;50.33;26.20;;;0.20;99.90;;;;;;4926163;29;20464;-60
2022/12/14 12:02:46;;;;;;;52.17;27.30;;;0.20;99.90;;;;;;4930393;29;20445;-58
2022/12/14 12:05:13;;;;;;;54.50;25.77;;;0.30;99.90;;;;;;4927013;28;20445;-58
2022/12/14 12:07:52;;;;;;;49.80;26.27;;;0.30;99.90;;;;;;4931710;29;20446;-59
2022/12/14 12:10:24;;;;;;;51.37;24.93;;;0.30;99.90;;;;;;4927705;29;20988;-57
2022/12/14 12:12:54;;;;;;;49.03;25.17;;;0.30;99.90;;;;;;4927502;29;20959;-59
2022/12/14 12:15:31;;;;;;;58.00;25.07;;;0.30;99.90;;;;;;4931816;29;20449;-58
2022/12/14 12:18:12;;;;;;;57.00;28.30;;;0.20;99.90;;;;;;4932159;29;21288;-59
2022/12/14 12:20:47;;;;;;;55.77;28.07;;;0.20;99.90;;;;;;4933947;28;20457;-59
2022/12/14 12:23:20;;;;;;;56.47;27.20;;;0.20;99.90;;;;;;4933826;29;20422;-60
2022/12/14 12:25:49;;;;;;;55.73;26.60;;;0.20;99.90;;;;;;4924733;29;20532;-58
2022/12/14 12:28:28;;;;;;;49.03;25.53;;;0.20;99.90;;;;;;4931529;29;20806;-61
2022/12/14 12:30:59;;;;;;;50.90;25.10;;;0.10;99.90;;;;;;4930047;28;20464;-60
2022/12/14 12:33:31;;;;;;;58.00;27.90;;;0.20;99.90;;;;;;4929197;29;20472;-58
2022/12/14 12:36:03;;;;;;;56.57;27.20;;;0.20;99.90;;;;;;4928677;29;20905;-59
2022/12/14 12:38:58;;;;;;;54.20;26.07;;;0.20;99.90;;;;;;4927475;29;20433;-60
2022/12/14 12:42:05;;;;;;;57.90;29.47;;;0.20;99.90;;;;;;4929192;29;20556;-59
2022/12/14 12:45:03;;;;;;;54.20;26.90;;;0.20;99.90;;;;;;4926634;29;20445;-59
2022/12/14 12:47:52;;;;;;;60.00;28.60;;;0.30;99.90;;;;;;4928279;29;20934;-59
2022/12/14 12:50:34;;;;;;;57.53;30.27;;;0.30;99.90;;;;;;4942593;28;20535;-59
2022/12/14 12:52:59;;;;;;;57.13;27.20;;;0.40;99.90;;;;;;4931074;29;20469;-58
2022/12/14 12:55:27;;;;;;;49.20;26.00;;;0.40;99.90;;;;;;4928737;29;20919;-60
2022/12/14 12:57:56;;;;;;;56.57;28.90;;;0.40;99.90;;;;;;4930408;29;20212;-59
2022/12/14 13:00:24;;;;;;;62.53;31.43;;;0.40;99.90;;;;;;4930155;29;20518;-59
2022/12/14 13:03:21;;;;;;;73.07;33.57;;;0.40;99.90;;;;;;4930497;28;20443;-60